createdAt,value
2017-04-11T00:01:03.196Z,0
2017-04-11T00:02:14.200Z,0
2017-04-11T00:03:25.210Z,0
2017-04-11T00:04:36.214Z,0
2017-04-11T00:05:47.219Z,0
2017-04-11T00:06:58.414Z,0
2017-04-11T00:08:09.430Z,0
2017-04-11T00:09:20.438Z,0
2017-04-11T00:10:31.478Z,0
2017-04-11T00:11:42.519Z,0
2017-04-11T00:12:53.519Z,0
2017-04-11T00:14:04.713Z,0
2017-04-11T00:15:15.915Z,0
2017-04-11T00:16:26.915Z,0
2017-04-11T00:17:37.916Z,0
2017-04-11T00:18:49.116Z,0
2017-04-11T00:20:00.104Z,0
2017-04-11T00:21:11.100Z,0
2017-04-11T00:22:22.294Z,0
2017-04-11T00:23:33.288Z,0
2017-04-11T00:24:44.680Z,0
2017-04-11T00:25:55.880Z,0
2017-04-11T00:27:06.875Z,0
2017-04-11T00:28:18.274Z,0
2017-04-11T00:29:29.465Z,0
2017-04-11T00:30:40.466Z,0
2017-04-11T00:31:51.463Z,0
2017-04-11T00:33:02.470Z,0
2017-04-11T00:34:13.674Z,0
2017-04-11T00:35:24.877Z,0
2017-04-11T00:36:35.869Z,0
2017-04-11T00:37:46.879Z,0
2017-04-11T00:38:57.869Z,0
2017-04-11T00:40:08.860Z,0
2017-04-11T00:41:19.867Z,0
2017-04-11T00:42:31.127Z,0
2017-04-11T00:43:42.137Z,0
2017-04-11T00:44:53.130Z,0
2017-04-11T00:46:04.125Z,0
2017-04-11T00:47:15.360Z,0
2017-04-11T00:48:26.372Z,0
2017-04-11T00:49:37.581Z,0
2017-04-11T00:50:48.582Z,0
2017-04-11T00:51:59.575Z,0
2017-04-11T00:53:10.595Z,0
2017-04-11T00:54:21.802Z,0
2017-04-11T00:55:33.013Z,0
2017-04-11T00:56:44.017Z,0
2017-04-11T00:57:55.274Z,0
2017-04-11T00:59:06.267Z,0
2017-04-11T01:00:17.269Z,0
2017-04-11T01:01:28.258Z,0
2017-04-11T01:02:39.258Z,0
2017-04-11T01:03:50.448Z,0
2017-04-11T01:05:01.444Z,0
2017-04-11T01:06:12.448Z,0
2017-04-11T01:07:23.444Z,0
2017-04-11T01:08:34.438Z,0
2017-04-11T01:09:45.439Z,0
2017-04-11T01:10:56.467Z,0
2017-04-11T01:12:07.491Z,0
2017-04-11T01:13:18.839Z,0
2017-04-11T01:14:29.839Z,0
2017-04-11T01:15:40.849Z,0
2017-04-11T01:16:51.839Z,0
2017-04-11T01:18:02.836Z,0
2017-04-11T01:19:13.843Z,0
2017-04-11T01:20:24.841Z,0
2017-04-11T01:21:35.848Z,0
2017-04-11T01:22:46.854Z,0
2017-04-11T01:23:58.057Z,0
2017-04-11T01:25:09.259Z,0
2017-04-11T01:26:20.269Z,0
2017-04-11T01:27:31.274Z,0
2017-04-11T01:28:42.331Z,0
2017-04-11T01:29:53.383Z,0
2017-04-11T01:31:04.387Z,0
2017-04-11T01:32:15.393Z,0
2017-04-11T01:33:26.389Z,0
2017-04-11T01:34:37.385Z,0
2017-04-11T01:35:48.396Z,0
2017-04-11T01:36:59.593Z,0
2017-04-11T01:38:10.585Z,0
2017-04-11T01:39:21.788Z,0
2017-04-11T01:40:32.777Z,0
2017-04-11T01:41:43.974Z,0
2017-04-11T01:42:54.981Z,0
2017-04-11T01:44:05.978Z,0
2017-04-11T01:45:17.207Z,0
2017-04-11T01:46:28.203Z,0
2017-04-11T01:47:39.204Z,0
2017-04-11T01:48:50.399Z,0
2017-04-11T01:50:01.403Z,0
2017-04-11T01:51:12.605Z,0
2017-04-11T01:52:23.817Z,0
2017-04-11T01:53:35.030Z,0
2017-04-11T01:54:46.035Z,0
2017-04-11T01:55:57.026Z,0
2017-04-11T01:57:08.028Z,0
2017-04-11T01:58:19.034Z,0
2017-04-11T01:59:30.255Z,0
2017-04-11T02:00:41.264Z,0
2017-04-11T02:01:52.473Z,0
2017-04-11T02:03:03.469Z,0
2017-04-11T02:04:14.532Z,0
2017-04-11T02:05:25.738Z,0
2017-04-11T02:06:36.740Z,0
2017-04-11T02:07:47.947Z,0
2017-04-11T02:08:59.166Z,0
2017-04-11T02:10:10.167Z,0
2017-04-11T02:11:21.219Z,0
2017-04-11T02:12:32.425Z,0
2017-04-11T02:13:43.429Z,0
2017-04-11T02:14:54.881Z,0
2017-04-11T02:16:05.877Z,0
2017-04-11T02:17:17.082Z,0
2017-04-11T02:18:28.080Z,0
2017-04-11T02:19:39.273Z,0
2017-04-11T02:20:50.270Z,0
2017-04-11T02:22:01.263Z,0
2017-04-11T02:23:12.288Z,0
2017-04-11T02:24:23.292Z,0
2017-04-11T02:25:34.298Z,0
2017-04-11T02:26:45.300Z,0
2017-04-11T02:27:56.306Z,0
2017-04-11T02:29:07.310Z,0
2017-04-11T02:30:18.362Z,0
2017-04-11T02:31:29.367Z,0
2017-04-11T02:32:40.391Z,0
2017-04-11T02:33:51.603Z,0
2017-04-11T02:35:02.611Z,0
2017-04-11T02:36:13.614Z,0
2017-04-11T02:37:24.614Z,0
2017-04-11T02:38:35.614Z,0
2017-04-11T02:39:46.612Z,0
2017-04-11T02:40:57.599Z,0
2017-04-11T02:42:08.607Z,0
2017-04-11T02:43:19.807Z,0
2017-04-11T02:44:30.810Z,0
2017-04-11T02:45:42.062Z,0
2017-04-11T02:46:53.060Z,0
2017-04-11T02:48:04.070Z,0
2017-04-11T02:49:15.077Z,0
2017-04-11T02:50:26.085Z,0
2017-04-11T02:51:37.092Z,0
2017-04-11T02:52:48.088Z,0
2017-04-11T02:53:59.067Z,0
2017-04-11T02:55:10.258Z,0
2017-04-11T02:56:21.259Z,0
2017-04-11T02:57:32.257Z,0
2017-04-11T02:58:43.458Z,0
2017-04-11T02:59:54.645Z,0
2017-04-11T03:01:05.698Z,0
2017-04-11T03:02:16.910Z,0
2017-04-11T03:03:28.111Z,0
2017-04-11T03:04:39.111Z,0
2017-04-11T03:05:50.142Z,0
2017-04-11T03:07:01.145Z,0
2017-04-11T03:08:12.150Z,0
2017-04-11T03:09:23.357Z,0
2017-04-11T03:10:34.356Z,0
2017-04-11T03:11:45.358Z,0
2017-04-11T03:12:56.406Z,0
2017-04-11T03:14:07.406Z,0
2017-04-11T03:15:18.408Z,0
2017-04-11T03:16:29.459Z,0
2017-04-11T03:17:40.474Z,0
2017-04-11T03:18:51.478Z,0
2017-04-11T03:20:02.481Z,0
2017-04-11T03:21:13.669Z,0
2017-04-11T03:22:24.670Z,0
2017-04-11T03:23:35.687Z,0
2017-04-11T03:24:46.684Z,0
2017-04-11T03:25:57.678Z,0
2017-04-11T03:27:08.874Z,0
2017-04-11T03:28:19.891Z,0
2017-04-11T03:29:30.900Z,0
2017-04-11T03:30:42.118Z,0
2017-04-11T03:31:53.376Z,0
2017-04-11T03:33:04.382Z,0
2017-04-11T03:34:15.386Z,0
2017-04-11T03:35:26.585Z,0
2017-04-11T03:36:37.582Z,0
2017-04-11T03:37:48.593Z,0
2017-04-11T03:38:59.596Z,0
2017-04-11T03:40:10.628Z,0
2017-04-11T03:41:21.620Z,0
2017-04-11T03:42:32.619Z,0
2017-04-11T03:43:43.614Z,0
2017-04-11T03:44:54.610Z,0
2017-04-11T03:46:05.609Z,0
2017-04-11T03:47:16.692Z,0
2017-04-11T03:48:27.699Z,0
2017-04-11T03:49:38.701Z,0
2017-04-11T03:50:49.694Z,0
2017-04-11T03:52:00.703Z,0
2017-04-11T03:53:11.699Z,0
2017-04-11T03:54:22.702Z,0
2017-04-11T03:55:33.700Z,0
2017-04-11T03:56:44.699Z,0
2017-04-11T03:57:55.701Z,0
2017-04-11T03:59:06.700Z,0
2017-04-11T04:00:17.894Z,0
2017-04-11T04:01:29.125Z,0
2017-04-11T04:02:40.131Z,0
2017-04-11T04:03:51.180Z,0
2017-04-11T04:05:02.387Z,0
2017-04-11T04:06:13.383Z,0
2017-04-11T04:07:24.377Z,0
2017-04-11T04:08:35.372Z,0
2017-04-11T04:09:46.569Z,0
2017-04-11T04:10:57.567Z,0
2017-04-11T04:12:08.786Z,0
2017-04-11T04:13:19.775Z,0
2017-04-11T04:14:30.784Z,0
2017-04-11T04:15:41.785Z,0
2017-04-11T04:16:52.790Z,0
2017-04-11T04:18:03.840Z,0
2017-04-11T04:19:14.844Z,0
2017-04-11T04:20:25.839Z,0
2017-04-11T04:21:37.022Z,0
2017-04-11T04:22:48.017Z,0
2017-04-11T04:23:59.018Z,0
2017-04-11T04:25:10.012Z,0
2017-04-11T04:26:21.016Z,0
2017-04-11T04:27:32.008Z,0
2017-04-11T04:28:43.262Z,0
2017-04-11T04:29:54.261Z,0
2017-04-11T04:31:05.266Z,0
2017-04-11T04:32:16.298Z,5
2017-04-11T04:33:27.286Z,5
2017-04-11T04:34:38.312Z,5
2017-04-11T04:35:49.307Z,5
2017-04-11T04:37:00.315Z,5
2017-04-11T04:38:11.512Z,5
2017-04-11T04:39:22.507Z,5
2017-04-11T04:40:33.510Z,5
2017-04-11T04:41:44.513Z,5
2017-04-11T04:42:55.706Z,5
2017-04-11T04:44:06.751Z,5
2017-04-11T04:45:17.947Z,5
2017-04-11T04:46:29.148Z,10
2017-04-11T04:47:40.138Z,10
2017-04-11T04:48:51.133Z,10
2017-04-11T04:50:02.131Z,10
2017-04-11T04:51:13.137Z,10
2017-04-11T04:52:24.139Z,10
2017-04-11T04:53:35.137Z,10
2017-04-11T04:54:46.396Z,15
2017-04-11T04:55:57.382Z,15
2017-04-11T04:57:08.384Z,15
2017-04-11T04:58:19.784Z,15
2017-04-11T04:59:30.785Z,15
2017-04-11T05:00:42.187Z,20
2017-04-11T05:01:53.177Z,25
2017-04-11T05:03:04.166Z,25
2017-04-11T05:04:15.170Z,25
2017-04-11T05:05:26.216Z,25
2017-04-11T05:06:37.218Z,30
2017-04-11T05:07:48.439Z,30
2017-04-11T05:08:59.646Z,35
2017-04-11T05:10:10.649Z,35
2017-04-11T05:11:21.649Z,50
2017-04-11T05:12:32.649Z,40
2017-04-11T05:13:43.657Z,30
2017-04-11T05:14:54.658Z,25
2017-04-11T05:16:05.864Z,25
2017-04-11T05:17:16.861Z,25
2017-04-11T05:18:27.854Z,25
2017-04-11T05:19:38.863Z,25
2017-04-11T05:20:50.073Z,30
2017-04-11T05:22:01.074Z,30
2017-04-11T05:23:12.081Z,30
2017-04-11T05:24:23.291Z,30
2017-04-11T05:25:34.532Z,30
2017-04-11T05:26:45.543Z,30
2017-04-11T05:27:56.552Z,35
2017-04-11T05:29:07.744Z,35
2017-04-11T05:30:18.749Z,30
2017-04-11T05:31:29.752Z,35
2017-04-11T05:32:40.762Z,30
2017-04-11T05:33:51.963Z,30
2017-04-11T05:35:02.954Z,30
2017-04-11T05:36:13.961Z,35
2017-04-11T05:37:25.168Z,35
2017-04-11T05:38:36.204Z,35
2017-04-11T05:39:47.212Z,35
2017-04-11T05:40:58.200Z,40
2017-04-11T05:42:09.196Z,40
2017-04-11T05:43:20.213Z,40
2017-04-11T05:44:31.207Z,50
2017-04-11T05:45:42.212Z,50
2017-04-11T05:46:53.255Z,55
2017-04-11T05:48:04.255Z,60
2017-04-11T05:49:15.459Z,55
2017-04-11T05:50:26.458Z,55
2017-04-11T05:51:37.513Z,55
2017-04-11T05:52:48.522Z,55
2017-04-11T05:53:59.730Z,55
2017-04-11T05:55:10.783Z,60
2017-04-11T05:56:21.781Z,60
2017-04-11T05:57:32.789Z,65
2017-04-11T05:58:43.804Z,65
2017-04-11T05:59:54.790Z,70
2017-04-11T06:01:05.986Z,70
2017-04-11T06:02:17.193Z,75
2017-04-11T06:03:28.198Z,75
2017-04-11T06:04:39.192Z,75
2017-04-11T06:05:50.391Z,75
2017-04-11T06:07:01.654Z,75
2017-04-11T06:08:12.849Z,80
2017-04-11T06:09:23.844Z,80
2017-04-11T06:10:34.879Z,85
2017-04-11T06:11:45.889Z,95
2017-04-11T06:12:56.892Z,100
2017-04-11T06:14:08.091Z,110
2017-04-11T06:15:19.087Z,105
2017-04-11T06:16:30.098Z,105
2017-04-11T06:17:41.098Z,105
2017-04-11T06:18:52.088Z,100
2017-04-11T06:20:03.295Z,105
2017-04-11T06:21:14.294Z,105
2017-04-11T06:22:25.561Z,105
2017-04-11T06:23:36.766Z,100
2017-04-11T06:24:47.756Z,95
2017-04-11T06:25:58.748Z,90
2017-04-11T06:27:09.752Z,85
2017-04-11T06:28:20.756Z,90
2017-04-11T06:29:31.757Z,90
2017-04-11T06:30:42.956Z,90
2017-04-11T06:31:53.961Z,85
2017-04-11T06:33:05.214Z,85
2017-04-11T06:34:16.207Z,80
2017-04-11T06:35:27.603Z,80
2017-04-11T06:36:38.606Z,80
2017-04-11T06:37:49.615Z,80
2017-04-11T06:39:00.670Z,80
2017-04-11T06:40:11.871Z,80
2017-04-11T06:41:22.874Z,85
2017-04-11T06:42:33.865Z,85
2017-04-11T06:43:45.081Z,85
2017-04-11T06:44:56.281Z,85
2017-04-11T06:46:07.291Z,75
2017-04-11T06:47:18.301Z,75
2017-04-11T06:48:29.362Z,80
2017-04-11T06:49:40.373Z,85
2017-04-11T06:50:51.367Z,85
2017-04-11T06:52:02.369Z,85
2017-04-11T06:53:13.383Z,85
2017-04-11T06:54:24.592Z,85
2017-04-11T06:55:35.796Z,85
2017-04-11T06:56:46.797Z,85
2017-04-11T06:57:57.792Z,85
2017-04-11T06:59:08.792Z,85
2017-04-11T07:00:19.786Z,85
2017-04-11T07:01:30.794Z,85
2017-04-11T07:02:41.801Z,85
2017-04-11T07:03:53.055Z,90
2017-04-11T07:05:04.260Z,90
2017-04-11T07:06:15.452Z,90
2017-04-11T07:07:26.459Z,90
2017-04-11T07:08:37.502Z,90
2017-04-11T07:09:48.498Z,90
2017-04-11T07:10:59.509Z,90
2017-04-11T07:12:10.526Z,90
2017-04-11T07:13:21.517Z,90
2017-04-11T07:14:32.561Z,90
2017-04-11T07:15:43.558Z,90
2017-04-11T07:16:54.555Z,90
2017-04-11T07:18:05.562Z,95
2017-04-11T07:19:16.564Z,95
2017-04-11T07:20:27.762Z,95
2017-04-11T07:21:38.757Z,100
2017-04-11T07:22:49.769Z,100
2017-04-11T07:24:00.777Z,105
2017-04-11T07:25:11.766Z,105
2017-04-11T07:26:22.782Z,105
2017-04-11T07:27:33.798Z,105
2017-04-11T07:28:45.004Z,105
2017-04-11T07:29:56.483Z,110
2017-04-11T07:31:07.485Z,110
2017-04-11T07:32:18.483Z,110
2017-04-11T07:33:29.502Z,120
2017-04-11T07:34:40.515Z,130
2017-04-11T07:35:51.516Z,135
2017-04-11T07:37:02.508Z,140
2017-04-11T07:38:13.504Z,155
2017-04-11T07:39:24.718Z,170
2017-04-11T07:40:35.716Z,180
2017-04-11T07:41:46.713Z,195
2017-04-11T07:42:57.698Z,205
2017-04-11T07:44:08.907Z,215
2017-04-11T07:45:19.966Z,230
2017-04-11T07:46:31.161Z,250
2017-04-11T07:47:42.163Z,260
2017-04-11T07:48:53.172Z,265
2017-04-11T07:50:04.190Z,270
2017-04-11T07:51:15.238Z,270
2017-04-11T07:52:26.436Z,270
2017-04-11T07:53:37.428Z,275
2017-04-11T07:54:48.634Z,290
2017-04-11T07:55:59.680Z,290
2017-04-11T07:57:10.675Z,280
2017-04-11T07:58:21.689Z,280
2017-04-11T07:59:32.688Z,265
2017-04-11T08:00:43.699Z,260
2017-04-11T08:01:54.693Z,260
2017-04-11T08:03:05.695Z,265
2017-04-11T08:04:16.698Z,270
2017-04-11T08:05:27.904Z,285
2017-04-11T08:06:38.917Z,290
2017-04-11T08:07:50.128Z,280
2017-04-11T08:09:01.126Z,275
2017-04-11T08:10:12.137Z,285
2017-04-11T08:11:23.126Z,285
2017-04-11T08:12:34.136Z,280
2017-04-11T08:13:45.138Z,285
2017-04-11T08:14:56.144Z,300
2017-04-11T08:16:07.398Z,305
2017-04-11T08:17:18.398Z,300
2017-04-11T08:18:29.610Z,285
2017-04-11T08:19:40.620Z,270
2017-04-11T08:20:51.622Z,260
2017-04-11T08:22:02.618Z,260
2017-04-11T08:23:13.835Z,260
2017-04-11T08:24:24.845Z,250
2017-04-11T08:25:35.853Z,245
2017-04-11T08:26:46.908Z,250
2017-04-11T08:27:58.117Z,270
2017-04-11T08:29:09.171Z,290
2017-04-11T08:30:20.375Z,295
2017-04-11T08:31:31.412Z,295
2017-04-11T08:32:42.420Z,315
2017-04-11T08:33:53.622Z,315
2017-04-11T08:35:04.635Z,325
2017-04-11T08:36:15.640Z,330
2017-04-11T08:37:26.900Z,340
2017-04-11T08:38:37.921Z,345
2017-04-11T08:39:48.934Z,355
2017-04-11T08:40:59.938Z,365
2017-04-11T08:42:10.935Z,380
2017-04-11T08:43:21.930Z,385
2017-04-11T08:44:32.985Z,405
2017-04-11T08:45:43.995Z,420
2017-04-11T08:46:55.401Z,415
2017-04-11T08:48:06.428Z,405
2017-04-11T08:49:17.436Z,415
2017-04-11T08:50:28.444Z,435
2017-04-11T08:51:39.455Z,445
2017-04-11T08:52:50.451Z,450
2017-04-11T08:54:01.457Z,455
2017-04-11T08:55:12.447Z,455
2017-04-11T08:56:23.450Z,455
2017-04-11T08:57:34.464Z,460
2017-04-11T08:58:45.468Z,445
2017-04-11T08:59:56.477Z,445
2017-04-11T09:01:07.698Z,435
2017-04-11T09:02:18.703Z,435
2017-04-11T09:03:29.748Z,450
2017-04-11T09:04:40.748Z,455
2017-04-11T09:05:51.750Z,445
2017-04-11T09:07:02.745Z,445
2017-04-11T09:08:13.753Z,480
2017-04-11T09:09:24.758Z,595
2017-04-11T09:10:35.762Z,1665
2017-04-11T09:11:46.780Z,2285
2017-04-11T09:12:57.783Z,1800
2017-04-11T09:14:08.832Z,1625
2017-04-11T09:15:20.062Z,2320
2017-04-11T09:16:31.061Z,1220
2017-04-11T09:17:42.075Z,1225
2017-04-11T09:18:53.091Z,995
2017-04-11T09:20:04.090Z,980
2017-04-11T09:21:15.092Z,895
2017-04-11T09:22:26.121Z,870
2017-04-11T09:23:37.128Z,885
2017-04-11T09:24:48.185Z,1115
2017-04-11T09:25:59.399Z,935
2017-04-11T09:27:10.623Z,1010
2017-04-11T09:28:21.830Z,1120
2017-04-11T09:29:32.831Z,1065
2017-04-11T09:30:43.840Z,990
2017-04-11T09:31:55.050Z,1030
2017-04-11T09:33:06.064Z,985
2017-04-11T09:34:17.118Z,1505
2017-04-11T09:35:28.123Z,1210
2017-04-11T09:36:39.135Z,1195
2017-04-11T09:37:50.145Z,1520
2017-04-11T09:39:01.154Z,3040
2017-04-11T09:40:12.621Z,1625
2017-04-11T09:41:23.637Z,2970
2017-04-11T09:42:34.646Z,2890
2017-04-11T09:43:45.651Z,2775
2017-04-11T09:44:56.654Z,2800
2017-04-11T09:46:07.669Z,2705
2017-04-11T09:47:18.688Z,2620
2017-04-11T09:48:29.911Z,2345
2017-04-11T09:49:41.132Z,2740
2017-04-11T09:50:52.204Z,2770
2017-04-11T09:52:03.224Z,2535
2017-04-11T09:53:14.238Z,2725
2017-04-11T09:54:25.253Z,2665
2017-04-11T09:55:36.262Z,2700
2017-04-11T09:56:47.488Z,2685
2017-04-11T09:57:58.508Z,2820
2017-04-11T09:59:09.931Z,2885
2017-04-11T10:00:20.947Z,2830
2017-04-11T10:01:32.206Z,2675
2017-04-11T10:02:43.223Z,2095
2017-04-11T10:03:54.235Z,2810
2017-04-11T10:05:05.251Z,2740
2017-04-11T10:06:16.281Z,2125
2017-04-11T10:07:27.300Z,1900
2017-04-11T10:08:38.319Z,1135
2017-04-11T10:09:49.331Z,1095
2017-04-11T10:11:00.551Z,1080
2017-04-11T10:12:11.576Z,1285
2017-04-11T10:13:22.592Z,1125
2017-04-11T10:14:33.659Z,1440
2017-04-11T10:15:44.679Z,1280
2017-04-11T10:16:55.694Z,925
2017-04-11T10:18:06.715Z,920
2017-04-11T10:19:17.747Z,990
2017-04-11T10:20:28.759Z,995
2017-04-11T10:21:39.777Z,1115
2017-04-11T10:22:50.850Z,770
2017-04-11T10:24:01.877Z,790
2017-04-11T10:25:12.894Z,850
2017-04-11T10:26:23.907Z,1185
2017-04-11T10:27:34.920Z,765
2017-04-11T10:28:45.934Z,1435
2017-04-11T10:29:56.959Z,660
2017-04-11T10:31:07.972Z,685
2017-04-11T10:32:18.985Z,1680
2017-04-11T10:33:30.460Z,600
2017-04-11T10:34:41.477Z,595
2017-04-11T10:35:52.708Z,640
2017-04-11T10:37:03.922Z,1110
2017-04-11T10:38:14.949Z,915
2017-04-11T10:39:26.166Z,670
2017-04-11T10:40:37.182Z,510
2017-04-11T10:41:48.193Z,415
2017-04-11T10:42:59.201Z,380
2017-04-11T10:44:10.469Z,365
2017-04-11T10:45:21.479Z,355
2017-04-11T10:46:32.722Z,350
2017-04-11T10:47:43.944Z,390
2017-04-11T10:48:55.368Z,405
2017-04-11T10:50:06.439Z,400
2017-04-11T10:51:17.451Z,355
2017-04-11T10:52:28.458Z,315
2017-04-11T10:53:39.663Z,295
2017-04-11T10:54:50.884Z,295
2017-04-11T10:56:01.884Z,305
2017-04-11T10:57:12.893Z,305
2017-04-11T10:58:24.095Z,315
2017-04-11T10:59:35.101Z,315
2017-04-11T11:00:46.382Z,330
2017-04-11T11:01:57.393Z,335
2017-04-11T11:03:08.384Z,355
2017-04-11T11:04:19.406Z,395
2017-04-11T11:05:30.617Z,405
2017-04-11T11:06:41.824Z,420
2017-04-11T11:07:52.827Z,575
2017-04-11T11:09:03.833Z,560
2017-04-11T11:10:14.837Z,520
2017-04-11T11:11:26.095Z,520
2017-04-11T11:12:37.106Z,470
2017-04-11T11:13:48.124Z,540
2017-04-11T11:14:59.136Z,890
2017-04-11T11:16:10.139Z,635
2017-04-11T11:17:21.147Z,610
2017-04-11T11:18:32.159Z,635
2017-04-11T11:19:43.165Z,705
2017-04-11T11:20:54.166Z,665
2017-04-11T11:22:05.426Z,615
2017-04-11T11:23:16.438Z,625
2017-04-11T11:24:27.443Z,675
2017-04-11T11:25:38.444Z,770
2017-04-11T11:26:49.443Z,1320
2017-04-11T11:28:00.652Z,840
2017-04-11T11:29:11.658Z,860
2017-04-11T11:30:22.661Z,1190
2017-04-11T11:31:33.670Z,1080
2017-04-11T11:32:44.684Z,895
2017-04-11T11:33:55.904Z,825
2017-04-11T11:35:06.917Z,730
2017-04-11T11:36:18.328Z,645
2017-04-11T11:37:29.345Z,585
2017-04-11T11:38:40.346Z,555
2017-04-11T11:39:51.359Z,525
2017-04-11T11:41:02.368Z,545
2017-04-11T11:42:13.375Z,650
2017-04-11T11:43:24.438Z,1120
2017-04-11T11:44:35.658Z,1445
2017-04-11T11:45:46.875Z,825
2017-04-11T11:46:57.896Z,895
2017-04-11T11:48:08.906Z,850
2017-04-11T11:49:19.922Z,1680
2017-04-11T11:50:31.125Z,885
2017-04-11T11:51:42.135Z,690
2017-04-11T11:52:53.152Z,1690
2017-04-11T11:54:04.423Z,1110
2017-04-11T11:55:15.426Z,1515
2017-04-11T11:56:26.428Z,1230
2017-04-11T11:57:37.637Z,1495
2017-04-11T11:58:48.637Z,970
2017-04-11T11:59:59.648Z,1080
2017-04-11T12:01:10.858Z,985
2017-04-11T12:02:21.889Z,1055
2017-04-11T12:03:33.102Z,1025
2017-04-11T12:04:44.177Z,1250
2017-04-11T12:05:55.385Z,1295
2017-04-11T12:07:06.397Z,1015
2017-04-11T12:08:17.411Z,1045
2017-04-11T12:09:28.449Z,720
2017-04-11T12:10:39.453Z,735
2017-04-11T12:11:50.674Z,1200
2017-04-11T12:13:01.695Z,740
2017-04-11T12:14:12.714Z,660
2017-04-11T12:15:23.733Z,610
2017-04-11T12:16:34.737Z,905
2017-04-11T12:17:45.747Z,630
2017-04-11T12:18:56.954Z,535
2017-04-11T12:20:08.005Z,480
2017-04-11T12:21:19.062Z,420
2017-04-11T12:22:30.079Z,375
2017-04-11T12:23:41.302Z,350
2017-04-11T12:24:52.322Z,305
2017-04-11T12:26:03.334Z,260
2017-04-11T12:27:14.341Z,235
2017-04-11T12:28:25.353Z,235
2017-04-11T12:29:36.359Z,245
2017-04-11T12:30:47.619Z,235
2017-04-11T12:31:58.639Z,220
2017-04-11T12:33:09.659Z,215
2017-04-11T12:34:20.669Z,205
2017-04-11T12:35:31.697Z,195
2017-04-11T12:36:42.697Z,185
2017-04-11T12:37:53.716Z,180
2017-04-11T12:39:04.958Z,165
2017-04-11T12:40:16.169Z,160
2017-04-11T12:41:27.370Z,145
2017-04-11T12:42:38.378Z,145
2017-04-11T12:43:49.390Z,130
2017-04-11T12:45:00.403Z,125
2017-04-11T12:46:11.859Z,115
2017-04-11T12:47:22.876Z,110
2017-04-11T12:48:33.883Z,115
2017-04-11T12:49:44.891Z,130
2017-04-11T12:50:56.095Z,130
2017-04-11T12:52:07.096Z,135
2017-04-11T12:53:18.114Z,145
2017-04-11T12:54:29.123Z,145
2017-04-11T12:55:40.125Z,145
2017-04-11T12:56:51.129Z,145
2017-04-11T12:58:02.342Z,155
2017-04-11T12:59:13.358Z,165
2017-04-11T13:00:24.367Z,175
2017-04-11T13:01:35.369Z,185
2017-04-11T13:02:46.575Z,195
2017-04-11T13:03:57.578Z,200
2017-04-11T13:05:08.801Z,200
2017-04-11T13:06:20.211Z,200
2017-04-11T13:07:31.209Z,195
2017-04-11T13:08:42.213Z,185
2017-04-11T13:09:53.620Z,175
2017-04-11T13:11:04.834Z,170
2017-04-11T13:12:15.842Z,165
2017-04-11T13:13:26.846Z,155
2017-04-11T13:14:37.849Z,150
2017-04-11T13:15:49.063Z,135
2017-04-11T13:17:00.121Z,125
2017-04-11T13:18:11.131Z,115
2017-04-11T13:19:22.135Z,115
2017-04-11T13:20:33.351Z,105
2017-04-11T13:21:44.552Z,100
2017-04-11T13:22:55.752Z,95
2017-04-11T13:24:06.765Z,90
2017-04-11T13:25:17.786Z,90
2017-04-11T13:26:28.839Z,95
2017-04-11T13:27:39.844Z,100
2017-04-11T13:28:51.062Z,105
2017-04-11T13:30:02.073Z,110
2017-04-11T13:31:13.070Z,115
2017-04-11T13:32:24.070Z,115
2017-04-11T13:33:35.081Z,125
2017-04-11T13:34:46.089Z,135
2017-04-11T13:35:57.490Z,160
2017-04-11T13:37:08.809Z,185
2017-04-11T13:38:20.018Z,195
2017-04-11T13:39:31.052Z,185
2017-04-11T13:40:42.278Z,170
2017-04-11T13:41:53.287Z,160
2017-04-11T13:43:04.300Z,160
2017-04-11T13:44:15.309Z,180
2017-04-11T13:45:26.321Z,190
2017-04-11T13:46:37.325Z,205
2017-04-11T13:47:48.524Z,205
2017-04-11T13:48:59.735Z,195
2017-04-11T13:50:10.747Z,205
2017-04-11T13:51:21.757Z,240
2017-04-11T13:52:32.826Z,265
2017-04-11T13:53:43.823Z,270
2017-04-11T13:54:54.834Z,250
2017-04-11T13:56:05.831Z,240
2017-04-11T13:57:16.837Z,220
2017-04-11T13:58:27.841Z,200
2017-04-11T13:59:39.050Z,190
2017-04-11T14:00:50.064Z,185
2017-04-11T14:02:01.073Z,175
2017-04-11T14:03:12.137Z,180
2017-04-11T14:04:23.146Z,195
2017-04-11T14:05:34.393Z,195
2017-04-11T14:06:45.395Z,195
2017-04-11T14:07:56.609Z,195
2017-04-11T14:09:07.613Z,180
2017-04-11T14:10:18.626Z,160
2017-04-11T14:11:29.840Z,145
2017-04-11T14:12:40.842Z,135
2017-04-11T14:13:51.850Z,125
2017-04-11T14:15:03.067Z,120
2017-04-11T14:16:14.282Z,110
2017-04-11T14:17:25.478Z,105
2017-04-11T14:18:36.744Z,105
2017-04-11T14:19:47.753Z,110
2017-04-11T14:20:58.761Z,115
2017-04-11T14:22:09.776Z,115
2017-04-11T14:23:20.785Z,115
2017-04-11T14:24:31.792Z,115
2017-04-11T14:25:42.793Z,120
2017-04-11T14:26:53.797Z,120
2017-04-11T14:28:04.812Z,120
2017-04-11T14:29:16.265Z,120
2017-04-11T14:30:27.276Z,125
2017-04-11T14:31:38.277Z,130
2017-04-11T14:32:49.285Z,135
2017-04-11T14:34:00.293Z,135
2017-04-11T14:35:11.290Z,140
2017-04-11T14:36:22.306Z,155
2017-04-11T14:37:33.309Z,160
2017-04-11T14:38:44.314Z,165
2017-04-11T14:39:55.725Z,165
2017-04-11T14:41:06.738Z,160
2017-04-11T14:42:17.742Z,155
2017-04-11T14:43:28.750Z,155
2017-04-11T14:44:40.007Z,155
2017-04-11T14:45:51.008Z,140
2017-04-11T14:47:02.221Z,130
2017-04-11T14:48:13.241Z,125
2017-04-11T14:49:24.439Z,120
2017-04-11T14:50:35.439Z,115
2017-04-11T14:51:46.634Z,110
2017-04-11T14:52:57.846Z,110
2017-04-11T14:54:09.057Z,110
2017-04-11T14:55:20.073Z,120
2017-04-11T14:56:31.288Z,130
2017-04-11T14:57:42.305Z,140
2017-04-11T14:58:53.505Z,160
2017-04-11T15:00:04.588Z,185
2017-04-11T15:01:15.600Z,210
2017-04-11T15:02:26.598Z,235
2017-04-11T15:03:37.609Z,250
2017-04-11T15:04:48.622Z,260
2017-04-11T15:05:59.629Z,270
2017-04-11T15:07:10.836Z,275
2017-04-11T15:08:21.845Z,275
2017-04-11T15:09:33.286Z,270
2017-04-11T15:10:44.298Z,260
2017-04-11T15:11:55.517Z,260
2017-04-11T15:13:06.532Z,255
2017-04-11T15:14:17.944Z,250
2017-04-11T15:15:28.966Z,250
2017-04-11T15:16:39.983Z,250
2017-04-11T15:17:51.005Z,240
2017-04-11T15:19:02.008Z,240
2017-04-11T15:20:13.296Z,210
2017-04-11T15:21:24.308Z,205
2017-04-11T15:22:35.520Z,210
2017-04-11T15:23:46.524Z,235
2017-04-11T15:24:57.527Z,260
2017-04-11T15:26:08.537Z,270
2017-04-11T15:27:19.726Z,265
2017-04-11T15:28:30.934Z,265
2017-04-11T15:29:41.943Z,260
2017-04-11T15:30:53.153Z,240
2017-04-11T15:32:04.159Z,215
2017-04-11T15:33:15.165Z,200
2017-04-11T15:34:26.178Z,185
2017-04-11T15:35:37.185Z,170
2017-04-11T15:36:48.229Z,155
2017-04-11T15:37:59.254Z,130
2017-04-11T15:39:10.272Z,115
2017-04-11T15:40:21.283Z,120
2017-04-11T15:41:32.495Z,130
2017-04-11T15:42:43.701Z,130
2017-04-11T15:43:54.721Z,120
2017-04-11T15:45:05.713Z,120
2017-04-11T15:46:16.758Z,130
2017-04-11T15:47:27.962Z,150
2017-04-11T15:48:38.975Z,170
2017-04-11T15:49:49.983Z,160
2017-04-11T15:51:01.196Z,155
2017-04-11T15:52:12.201Z,155
2017-04-11T15:53:23.233Z,170
2017-04-11T15:54:34.242Z,180
2017-04-11T15:55:45.241Z,185
2017-04-11T15:56:56.302Z,200
2017-04-11T15:58:07.304Z,200
2017-04-11T15:59:18.312Z,200
2017-04-11T16:00:29.317Z,185
2017-04-11T16:01:40.532Z,175
2017-04-11T16:02:51.550Z,165
2017-04-11T16:04:02.564Z,160
2017-04-11T16:05:13.587Z,160
2017-04-11T16:06:24.591Z,155
2017-04-11T16:07:35.806Z,150
2017-04-11T16:08:46.825Z,150
2017-04-11T16:09:57.841Z,145
2017-04-11T16:11:08.853Z,145
2017-04-11T16:12:19.898Z,145
2017-04-11T16:13:30.910Z,150
2017-04-11T16:14:41.912Z,155
2017-04-11T16:15:52.914Z,155
2017-04-11T16:17:03.920Z,170
2017-04-11T16:18:14.985Z,175
2017-04-11T16:19:26.002Z,175
2017-04-11T16:20:37.015Z,175
2017-04-11T16:21:48.223Z,180
2017-04-11T16:22:59.274Z,170
2017-04-11T16:24:10.283Z,160
2017-04-11T16:25:21.492Z,140
2017-04-11T16:26:32.499Z,135
2017-04-11T16:27:43.502Z,120
2017-04-11T16:28:54.550Z,115
2017-04-11T16:30:05.763Z,110
2017-04-11T16:31:16.767Z,105
2017-04-11T16:32:27.766Z,105
2017-04-11T16:33:38.770Z,100
2017-04-11T16:34:50.181Z,90
2017-04-11T16:36:01.183Z,80
2017-04-11T16:37:12.394Z,70
2017-04-11T16:38:23.647Z,60
2017-04-11T16:39:34.661Z,55
2017-04-11T16:40:45.678Z,45